Main page
METAR-TAF:

METAR-TAF

Airports :

Linton-on-Ouse, England

RAF Linton-on-Ouse

latitude: 54-03N, longitude: 001-15W, elevation: 16 m

Current weather observation

The report was made 1 hour and 22 minutes ago, at 00:50 UTC
Wind 15 kt from the North
Temperature 12°C
Humidity 94%
Pressure 994 hPa
Visibility: 7000 m

METAR: EGXU 290050Z AUTO 35015KT 7000 // BKN012/// 12/11 Q0994

Time: 03:12 (02:12 UTC)

Forecast

The report was made 12 hours and 50 minutes ago, at 13:22 UTC
Forecast valid from 28 at 15 UTC to 28 at 18 UTC
Wind 12 kt from the North
Visibility: 8000 m
Broken clouds at a height of 1200 ft
Overcast at a height of 3000 ft
light rain
Temporary
from 28 at 15 UTC to 28 at 18 UTC
Visibility: 4000 m
Scattered clouds at a height of 600 ft
Overcast at a height of 1000 ft
rain
Probability 30% :
Temporary
from 28 at 16 UTC to 28 at 18 UTC
Wind 15 kt from the North with gusts up to 25 kt

TAF: EGXU 281322Z 2815/2818 36012KT 8000 -RA BKN012 OVC030 TEMPO 2815/2818 4000 RA SCT006 OVC010 PROB30 TEMPO 2816/2818 01015G25KT

Weather observations and forecasts of more than 4000 airports (METAR and TAF reports).

The available stations are represented by yellow and red dots on the map.

Hover mouse over dot to see the name of the station.

Then click to see weather observations and forecasts.

To change the map : click on the green buttons with a black cross to zoom in, on the green button with a dash to zoom out, or on the green arrows for adjacent maps.


METAR-TAF: